Terminal Aerodrome Forecast
Issued by NWS

Home | Current Version | Previous Version | Text Only | Print | Product List | Glossary On
Versions: 1 2 3 4 5 6 7 8 9 10 11 12 13 14 15
000
FTAK31 PAJN 020536
TAFAJN
TAF
PAJN 020536Z 0206/0306 VRB06KT 6SM -RA FEW003 SCT008 OVC015
      TEMPO 0206/0210 2SM RA BR SCT003 BKN008 OVC015
     FM021000 07010KT 3SM RA BR SCT004 BKN010 OVC020 WS020/15020KT
     FM021800 24008KT 6SM -RA BR SCT015 OVC035
     FM022200 VRB06KT P6SM VCSH SCT010 BKN035 OVC050=

USA.gov is the U.S. government's official web portal to all federal, state and local government web resources and services.